LFBT/LDE METAR and TAF weather

Enter ICAO airport designator
Station Type Date Time Source
LFBT METAR 2022/01/25 05:00 UTC NOAA

LFBT 250500Z AUTO 17006KT CAVOK M00/M03 Q1031 NOSIG


Station Type Date Time Source
LFBT Decoded METAR 2022/01/25 05:00 UTC NOAA

Tarbes Ossun Lourdes, France (LFBT) 43-11N 000-00W 363M
Jan 25, 2022 - 12:00 AM EST / 2022.01.25 0500 UTC
Wind: from the S (170 degrees) at 7 MPH (6 KT):0
Visibility: greater than 7 mile(s):0
Temperature: 32 F (0 C)
Windchill: 24 F (-4 C):1
Dew Point: 26 F (-3 C)
Relative Humidity: 80%
Pressure (altimeter): 30.45 in. Hg (1031 hPa)
ob: LFBT 250500Z AUTO 17006KT CAVOK M00/M03 Q1031 NOSIG
cycle: 5

Station Type Date Time Source
LFBT TAF 2022/01/24 18:21 UTC NOAA

TAF LFBT 241700Z 2418/2518 VRB03KT CAVOK

Example: see airport list